Time;durP1;ratioP1;P1;durP2;ratioP2;P2;SDS_P1;SDS_P2;PMS_P1;PMS_P2;Temp;Humidity;BMP_temperature;BMP_pressure;BME280_temperature;BME280_humidity;BME280_pressure;Samples;Min_cycle;Max_cycle;Signal;HPM_P1;HPM_P2
2023/05/20 00:06:38;;;;;;;;;;;;;;;11.58;100.00;97742.47;18560805;32;19993;-57
2023/05/20 00:16:42;;;;;;;;;;;;;;;11.56;100.00;97740.03;18560532;32;20277;-56
2023/05/20 00:26:45;;;;;;;;;;;;;;;11.56;100.00;97733.81;18546480;32;20007;-55
2023/05/20 00:36:47;;;;;;;;;;;;;;;11.55;100.00;97734.91;18560078;32;19961;-56
2023/05/20 00:46:50;;;;;;;;;;;;;;;11.50;100.00;97725.69;18556646;32;20289;-56
2023/05/20 00:56:53;;;;;;;;;;;;;;;11.47;100.00;97736.25;18571408;31;19957;-56
2023/05/20 01:06:56;;;;;;;;;;;;;;;11.45;100.00;97720.28;18571300;32;20321;-56
2023/05/20 01:17:01;;;;;;;;;;;;;;;11.42;100.00;97701.09;18570415;32;19952;-55
2023/05/20 01:27:04;;;;;;;;;;;;;;;11.40;100.00;97698.66;18570098;32;19956;-56
2023/05/20 01:37:07;;;;;;;;;;;;;;;11.36;100.00;97697.59;18569351;32;19952;-56
2023/05/20 01:47:09;;;;;;;;;;;;;;;11.33;100.00;97692.72;18568902;32;19965;-55
2023/05/20 01:57:12;;;;;;;;;;;;;;;11.30;100.00;97693.25;18552930;32;19944;-56
2023/05/20 02:07:15;;;;;;;;;;;;;;;11.28;100.00;97684.63;18567646;32;19993;-57
2023/05/20 02:17:18;;;;;;;;;;;;;;;11.27;100.00;97685.69;18552488;32;19949;-55
2023/05/20 02:27:20;;;;;;;;;;;;;;;11.28;100.00;97679.22;18552248;32;19960;-56
2023/05/20 02:37:22;;;;;;;;;;;;;;;11.26;100.00;97675.94;18565770;32;19963;-56
2023/05/20 02:47:26;;;;;;;;;;;;;;;11.25;100.00;97667.03;18564556;31;20342;-55
2023/05/20 02:57:28;;;;;;;;;;;;;;;11.22;100.00;97659.44;18564323;32;20257;-56
2023/05/20 03:07:33;;;;;;;;;;;;;;;11.18;100.00;97647.53;18563639;32;20292;-57
2023/05/20 03:17:35;;;;;;;;;;;;;;;11.18;100.00;97642.12;18563381;32;20426;-56
2023/05/20 03:27:38;;;;;;;;;;;;;;;11.15;100.00;97635.34;18562611;32;19993;-57
2023/05/20 03:37:41;;;;;;;;;;;;;;;11.14;100.00;97641.06;18549003;32;19983;-56
2023/05/20 03:47:43;;;;;;;;;;;;;;;11.10;100.00;97648.94;18561379;32;19983;-56
2023/05/20 03:57:46;;;;;;;;;;;;;;;11.10;100.00;97640.81;18561107;32;19965;-56
2023/05/20 04:07:48;;;;;;;;;;;;;;;11.13;100.00;97645.66;18546964;32;20276;-56
2023/05/20 04:17:51;;;;;;;;;;;;;;;11.13;100.00;97637.53;18553092;32;19967;-56
2023/05/20 04:27:53;;;;;;;;;;;;;;;11.16;100.00;97639.69;18574304;32;19976;-56
2023/05/20 04:37:56;;;;;;;;;;;;;;;11.23;100.00;97642.12;18573094;31;19968;-56
2023/05/20 04:47:58;;;;;;;;;;;;;;;11.33;100.00;97646.69;18572105;32;19961;-57
2023/05/20 04:58:02;;;;;;;;;;;;;;;11.52;100.00;97644.19;18572066;32;20311;-57
2023/05/20 05:08:05;;;;;;;;;;;;;;;11.66;100.00;97630.84;18557139;32;19948;-57
2023/05/20 05:18:08;;;;;;;;;;;;;;;11.77;100.00;97637.87;18570450;32;19948;-56
2023/05/20 05:28:11;;;;;;;;;;;;;;;11.84;100.00;97632.94;18569893;32;20340;-57
2023/05/20 05:38:14;;;;;;;;;;;;;;;11.91;100.00;97629.09;18569345;32;19955;-56
2023/05/20 05:48:17;;;;;;;;;;;;;;;11.96;100.00;97623.69;18568448;32;20004;-57
2023/05/20 05:58:20;;;;;;;;;;;;;;;12.06;100.00;97614.69;18568127;32;19956;-55
2023/05/20 06:08:22;;;;;;;;;;;;;;;12.22;100.00;97632.47;18568020;32;19992;-57
2023/05/20 06:18:25;;;;;;;;;;;;;;;12.32;100.00;97637.00;18552888;32;19967;-56
2023/05/20 06:28:29;;;;;;;;;;;;;;;12.32;100.00;97627.00;18566140;31;20008;-56
2023/05/20 06:38:31;;;;;;;;;;;;;;;12.50;100.00;97622.78;18565080;32;19952;-57
2023/05/20 06:48:35;;;;;;;;;;;;;;;12.83;100.00;97604.03;18564998;32;19945;-57
2023/05/20 06:58:39;;;;;;;;;;;;;;;13.03;100.00;97610.34;18564477;32;20260;-56
2023/05/20 07:08:42;;;;;;;;;;;;;;;13.39;100.00;97615.44;18549974;32;19960;-57
2023/05/20 07:18:44;;;;;;;;;;;;;;;13.85;100.00;97595.00;18563233;32;20005;-57
2023/05/20 07:28:47;;;;;;;;;;;;;;;14.21;100.00;97587.16;18548536;32;19961;-57
2023/05/20 07:38:53;;;;;;;;;;;;;;;14.40;100.00;97589.03;18561912;32;19956;-58
2023/05/20 07:49:06;;;;;;;;;;;;;;;14.22;100.00;97583.34;18546829;32;19991;-57
2023/05/20 07:59:09;;;;;;;;;;;;;;;14.10;100.00;97574.81;18561461;32;19985;-58
2023/05/20 08:09:12;;;;;;;;;;;;;;;14.02;100.00;97586.38;18560968;32;19976;-57
2023/05/20 08:19:15;;;;;;;;;;;;;;;14.19;100.00;97581.19;18560419;32;19979;-57
2023/05/20 08:29:19;;;;;;;;;;;;;;;14.37;100.00;97589.62;18560467;32;19964;-57
2023/05/20 08:39:21;;;;;;;;;;;;;;;14.44;100.00;97579.16;18559646;32;19952;-57
2023/05/20 08:49:24;;;;;;;;;;;;;;;14.79;100.00;97573.47;18545467;32;19967;-57
2023/05/20 08:59:31;;;;;;;;;;;;;;;15.16;100.00;97577.91;18560048;32;19993;-57
2023/05/20 09:09:34;;;;;;;;;;;;;;;15.66;100.00;97571.72;18571291;32;19964;-58
2023/05/20 09:19:37;;;;;;;;;;;;;;;15.92;100.00;97574.75;18570458;32;19983;-57
2023/05/20 09:29:42;;;;;;;;;;;;;;;16.25;100.00;97565.50;18570073;32;19963;-57
2023/05/20 09:39:58;;;;;;;;;;;;;;;16.74;100.00;97573.88;18569366;31;19961;-58
2023/05/20 09:50:02;;;;;;;;;;;;;;;17.35;100.00;97570.59;18569036;32;19956;-57
2023/05/20 10:00:07;;;;;;;;;;;;;;;18.24;100.00;97568.50;18568315;32;19949;-57
2023/05/20 10:10:24;;;;;;;;;;;;;;;19.03;100.00;97578.53;18567471;32;19944;-58
2023/05/20 10:20:28;;;;;;;;;;;;;;;19.02;96.81;97568.69;18566535;32;19963;-58
2023/05/20 10:30:32;;;;;;;;;;;;;;;19.10;91.16;97567.84;18566347;32;20268;-58
2023/05/20 10:40:37;;;;;;;;;;;;;;;19.40;92.00;97554.97;18551521;31;19961;-58
2023/05/20 10:50:43;;;;;;;;;;;;;;;19.41;94.97;97551.09;18565106;32;19956;-58
2023/05/20 11:00:51;;;;;;;;;;;;;;;20.46;82.59;97550.34;18537337;31;19996;-58
2023/05/20 11:10:58;;;;;;;;;;;;;;;21.50;79.01;97543.97;18549692;32;19956;-58
2023/05/20 11:21:04;;;;;;;;;;;;;;;22.39;61.97;97549.78;18563584;32;19964;-58
2023/05/20 11:31:07;;;;;;;;;;;;;;;22.33;67.54;97535.41;18548134;32;20008;-58
2023/05/20 11:41:10;;;;;;;;;;;;;;;21.66;77.01;97531.13;18561925;32;19983;-58
2023/05/20 11:51:14;;;;;;;;;;;;;;;20.65;89.03;97510.56;18562196;32;19952;-58
2023/05/20 12:01:18;;;;;;;;;;;;;;;22.18;86.28;97499.22;18561166;32;20302;-58
2023/05/20 12:11:24;;;;;;;;;;;;;;;22.52;66.60;97493.47;18561598;32;20363;-57
2023/05/20 12:21:30;;;;;;;;;;;;;;;22.52;72.26;97485.19;18560227;32;19986;-58
2023/05/20 12:31:36;;;;;;;;;;;;;;;22.68;66.88;97480.50;18546088;32;19994;-57
2023/05/20 12:41:41;;;;;;;;;;;;;;;22.20;76.64;97485.13;18569201;31;20340;-58
2023/05/20 12:51:46;;;;;;;;;;;;;;;21.81;83.93;97487.53;18572521;31;19956;-57
2023/05/20 13:01:59;;;;;;;;;;;;;;;21.86;90.51;97465.28;18558250;32;20017;-57
2023/05/20 13:12:04;;;;;;;;;;;;;;;21.32;85.47;97466.41;18557397;32;19992;-57
2023/05/20 13:22:08;;;;;;;;;;;;;;;21.05;85.76;97457.75;18556414;32;19972;-58
2023/05/20 13:32:11;;;;;;;;;;;;;;;20.98;95.41;97458.31;18569842;32;19975;-58
2023/05/20 13:42:15;;;;;;;;;;;;;;;21.56;83.09;97448.31;18568971;31;19956;-58
2023/05/20 13:52:20;;;;;;;;;;;;;;;21.38;87.69;97447.72;18568551;32;20004;-58
2023/05/20 14:02:33;;;;;;;;;;;;;;;21.06;86.48;97439.28;18567967;32;19978;-57
2023/05/20 14:12:36;;;;;;;;;;;;;;;20.60;96.74;97420.16;18567695;32;19957;-58
2023/05/20 14:22:39;;;;;;;;;;;;;;;20.26;100.00;97430.38;18567216;32;19984;-58
2023/05/20 14:32:43;;;;;;;;;;;;;;;20.03;100.00;97432.72;18566365;32;20004;-58
2023/05/20 14:42:47;;;;;;;;;;;;;;;19.76;100.00;97437.59;18565157;31;19964;-58
2023/05/20 14:52:51;;;;;;;;;;;;;;;19.40;100.00;97426.13;18565373;32;19984;-58
2023/05/20 15:02:55;;;;;;;;;;;;;;;19.36;100.00;97414.22;18549855;32;19979;-58
2023/05/20 15:12:59;;;;;;;;;;;;;;;19.68;100.00;97419.28;18550144;32;19945;-58
2023/05/20 15:23:03;;;;;;;;;;;;;;;19.90;100.00;97427.19;18562911;32;19956;-57
2023/05/20 15:33:09;;;;;;;;;;;;;;;20.08;100.00;97418.78;18562950;32;19964;-58
2023/05/20 15:43:18;;;;;;;;;;;;;;;20.18;100.00;97426.59;18547659;32;20298;-58
2023/05/20 15:53:22;;;;;;;;;;;;;;;20.18;100.00;97426.59;18547376;32;19948;-57
2023/05/20 16:03:26;;;;;;;;;;;;;;;20.10;100.00;97419.25;18561294;32;19972;-57
2023/05/20 16:13:32;;;;;;;;;;;;;;;19.88;100.00;97426.72;18560341;32;19956;-58
2023/05/20 16:23:36;;;;;;;;;;;;;;;19.45;100.00;97423.19;18560435;32;19971;-57
2023/05/20 16:33:40;;;;;;;;;;;;;;;18.94;100.00;97412.25;18545721;32;19971;-57
2023/05/20 16:43:43;;;;;;;;;;;;;;;18.65;100.00;97404.81;18545420;31;19976;-58
2023/05/20 16:53:46;;;;;;;;;;;;;;;18.45;100.00;97398.91;18545826;32;20064;-58
2023/05/20 17:03:50;;;;;;;;;;;;;;;18.25;100.00;97408.66;18559749;32;20003;-58
2023/05/20 17:13:53;;;;;;;;;;;;;;;18.08;100.00;97387.63;18544442;32;19963;-58
2023/05/20 17:23:57;;;;;;;;;;;;;;;18.07;100.00;97423.50;18563263;31;19960;-58
2023/05/20 17:34:00;;;;;;;;;;;;;;;17.91;100.00;97414.97;18569830;32;20011;-58
2023/05/20 17:44:04;;;;;;;;;;;;;;;17.79;100.00;97407.44;18569167;32;20020;-58
2023/05/20 17:54:07;;;;;;;;;;;;;;;17.66;100.00;97409.22;18568622;32;19964;-57
2023/05/20 18:04:10;;;;;;;;;;;;;;;17.38;100.00;97408.75;18568129;32;20336;-57
2023/05/20 18:14:13;;;;;;;;;;;;;;;17.10;100.00;97430.88;18540295;31;19949;-58
2023/05/20 18:24:17;;;;;;;;;;;;;;;16.85;100.00;97427.75;18566994;32;20364;-57
2023/05/20 18:34:21;;;;;;;;;;;;;;;16.61;100.00;97414.50;18566081;32;19957;-57
2023/05/20 18:44:24;;;;;;;;;;;;;;;16.34;100.00;97418.25;18538488;32;20008;-57
2023/05/20 18:54:27;;;;;;;;;;;;;;;16.02;100.00;97412.78;18564928;32;19975;-57
2023/05/20 19:04:30;;;;;;;;;;;;;;;15.72;100.00;97414.34;18564452;32;19960;-58
2023/05/20 19:14:33;;;;;;;;;;;;;;;15.48;100.00;97401.78;18563744;32;19998;-58
2023/05/20 19:24:36;;;;;;;;;;;;;;;15.30;100.00;97398.12;18549389;32;19957;-57
2023/05/20 19:34:39;;;;;;;;;;;;;;;15.08;100.00;97393.44;18562807;32;19975;-58
2023/05/20 19:44:45;;;;;;;;;;;;;;;14.85;100.00;97390.66;18547867;32;19998;-58
2023/05/20 19:54:48;;;;;;;;;;;;;;;14.62;100.00;97384.34;18561825;32;19956;-58
2023/05/20 20:04:50;;;;;;;;;;;;;;;14.38;100.00;97398.12;18561292;32;19948;-58
2023/05/20 20:14:53;;;;;;;;;;;;;;;14.12;100.00;97398.59;18560827;32;19963;-58
2023/05/20 20:24:56;;;;;;;;;;;;;;;13.92;100.00;97409.84;18561281;32;19979;-58
2023/05/20 20:34:59;;;;;;;;;;;;;;;13.78;100.00;97398.94;18560233;32;20295;-58
2023/05/20 20:45:03;;;;;;;;;;;;;;;13.62;100.00;97395.66;18559990;32;20009;-58
2023/05/20 20:55:05;;;;;;;;;;;;;;;13.46;100.00;97392.38;18545448;32;19973;-58
2023/05/20 21:05:09;;;;;;;;;;;;;;;13.32;100.00;97398.53;18571768;32;19996;-58
2023/05/20 21:15:13;;;;;;;;;;;;;;;13.16;100.00;97386.28;18571062;32;19987;-58
2023/05/20 21:25:16;;;;;;;;;;;;;;;13.04;100.00;97376.63;18570693;32;19956;-58
2023/05/20 21:35:19;;;;;;;;;;;;;;;13.05;100.00;97369.31;18569989;32;19976;-57
2023/05/20 21:45:21;;;;;;;;;;;;;;;13.09;100.00;97364.09;18569154;32;19965;-58
2023/05/20 21:55:24;;;;;;;;;;;;;;;12.95;100.00;97361.31;18568577;31;19953;-57
2023/05/20 22:05:27;;;;;;;;;;;;;;;12.87;100.00;97366.31;18568206;32;20370;-58
2023/05/20 22:15:30;;;;;;;;;;;;;;;12.85;100.00;97356.84;18566413;32;19961;-57
2023/05/20 22:25:34;;;;;;;;;;;;;;;12.77;100.00;97355.59;18567056;32;19993;-58
2023/05/20 22:35:38;;;;;;;;;;;;;;;12.67;100.00;97350.31;18566118;32;19969;-57
2023/05/20 22:45:40;;;;;;;;;;;;;;;12.58;100.00;97338.47;18565603;32;20293;-57
2023/05/20 22:55:43;;;;;;;;;;;;;;;12.53;100.00;97339.38;18565120;32;20036;-58
2023/05/20 23:05:46;;;;;;;;;;;;;;;12.49;100.00;97333.69;18564708;32;20320;-58
2023/05/20 23:15:49;;;;;;;;;;;;;;;12.53;100.00;97328.50;18563719;32;20340;-58
2023/05/20 23:25:52;;;;;;;;;;;;;;;12.59;100.00;97319.19;18563084;32;19998;-58
2023/05/20 23:35:55;;;;;;;;;;;;;;;12.63;100.00;97317.50;18562785;32;19964;-57
2023/05/20 23:45:57;;;;;;;;;;;;;;;12.67;100.00;97309.59;18562084;32;20004;-58
2023/05/20 23:56:00;;;;;;;;;;;;;;;12.70;100.00;97311.72;18561564;32;19963;-58
